createdAt,value
2019-06-26T00:01:30.486Z,23.93
2019-06-26T00:04:00.425Z,23.93
2019-06-26T00:06:30.017Z,24.07
2019-06-26T00:09:00.229Z,23.53
2019-06-26T00:11:30.354Z,27.93
2019-06-26T00:13:59.931Z,27.00
2019-06-26T00:16:29.280Z,28.67
2019-06-26T00:18:58.278Z,27.40
2019-06-26T00:21:27.704Z,28.90
2019-06-26T00:23:58.782Z,31.23
2019-06-26T00:26:28.257Z,27.83
2019-06-26T00:28:57.979Z,28.97
2019-06-26T00:31:27.964Z,32.40
2019-06-26T00:33:57.005Z,35.07
2019-06-26T00:36:26.961Z,38.40
2019-06-26T00:38:56.440Z,34.50
2019-06-26T00:41:25.998Z,37.50
2019-06-26T00:43:55.680Z,39.40
2019-06-26T00:46:26.073Z,37.73
2019-06-26T00:48:55.989Z,43.67
2019-06-26T00:51:25.715Z,48.90
2019-06-26T00:53:55.485Z,48.97
2019-06-26T00:56:24.637Z,51.87
2019-06-26T00:58:55.153Z,54.03
2019-06-26T01:01:24.196Z,53.90
2019-06-26T01:03:53.452Z,56.47
2019-06-26T01:06:27.888Z,57.00
2019-06-26T01:08:58.053Z,61.33
2019-06-26T01:11:28.431Z,60.43
2019-06-26T01:13:59.164Z,64.37
2019-06-26T01:16:28.060Z,65.43
2019-06-26T01:18:58.066Z,67.43
2019-06-26T01:21:27.011Z,73.00
2019-06-26T01:23:57.067Z,73.53
2019-06-26T01:26:26.744Z,76.77
2019-06-26T01:28:56.288Z,71.80
2019-06-26T01:31:25.913Z,77.43
2019-06-26T01:33:55.916Z,80.03
2019-06-26T01:36:26.451Z,82.50
2019-06-26T01:38:57.189Z,79.77
2019-06-26T01:41:29.717Z,86.53
2019-06-26T01:44:13.544Z,85.30
2019-06-26T01:46:27.650Z,79.23
2019-06-26T01:48:56.621Z,85.90
2019-06-26T01:51:26.319Z,83.73
2019-06-26T01:53:56.253Z,82.50
2019-06-26T01:56:25.132Z,85.03
2019-06-26T01:58:54.768Z,85.53
2019-06-26T02:01:24.328Z,91.43
2019-06-26T02:03:54.833Z,93.73
2019-06-26T02:06:24.397Z,98.13
2019-06-26T02:08:54.394Z,91.63
2019-06-26T02:11:24.190Z,90.80
2019-06-26T02:13:53.284Z,97.77
2019-06-26T02:16:22.617Z,100.83
2019-06-26T02:18:54.430Z,99.50
2019-06-26T02:21:23.382Z,103.73
2019-06-26T02:23:52.513Z,100.63
2019-06-26T02:26:21.501Z,101.30
2019-06-26T02:28:52.270Z,99.63
2019-06-26T02:31:22.513Z,100.57
2019-06-26T02:33:52.829Z,98.43
2019-06-26T02:36:22.626Z,100.60
2019-06-26T02:38:51.547Z,104.63
2019-06-26T02:41:20.712Z,110.50
2019-06-26T02:43:50.448Z,113.40
2019-06-26T02:46:21.407Z,122.77
2019-06-26T02:48:51.744Z,128.23
2019-06-26T02:51:21.191Z,120.37
2019-06-26T02:53:50.229Z,120.77
2019-06-26T02:56:19.180Z,114.10
2019-06-26T02:58:48.722Z,120.73
2019-06-26T03:01:17.586Z,127.40
2019-06-26T03:03:47.124Z,129.90
2019-06-26T03:06:16.097Z,129.03
2019-06-26T03:08:46.192Z,129.90
2019-06-26T03:11:16.044Z,120.50
2019-06-26T03:13:46.335Z,129.20
2019-06-26T03:16:15.525Z,129.03
2019-06-26T03:18:44.531Z,121.13
2019-06-26T03:21:15.819Z,128.73
2019-06-26T03:23:44.978Z,121.20
2019-06-26T03:26:13.994Z,119.63
2019-06-26T03:28:42.984Z,116.60
2019-06-26T03:31:12.557Z,122.60
2019-06-26T03:33:43.297Z,123.63
2019-06-26T03:36:12.890Z,119.40
2019-06-26T03:38:42.403Z,118.57
2019-06-26T03:41:11.296Z,120.60
2019-06-26T03:43:40.239Z,113.57
2019-06-26T03:46:10.642Z,115.23
2019-06-26T03:48:40.164Z,117.93
2019-06-26T03:51:09.255Z,113.57
2019-06-26T03:53:38.148Z,114.53
2019-06-26T03:56:07.127Z,111.53
2019-06-26T03:58:37.172Z,115.73
2019-06-26T04:01:06.919Z,104.67
2019-06-26T04:03:35.846Z,109.07
2019-06-26T04:06:05.060Z,109.67
2019-06-26T04:08:34.106Z,104.33
2019-06-26T04:11:03.222Z,105.13
2019-06-26T04:13:32.306Z,107.17
2019-06-26T04:16:01.395Z,102.67
2019-06-26T04:18:30.233Z,104.17
2019-06-26T04:21:00.476Z,99.10
2019-06-26T04:23:30.810Z,105.03
2019-06-26T04:25:59.763Z,99.90
2019-06-26T04:28:30.423Z,97.57
2019-06-26T04:31:00.573Z,96.33
2019-06-26T04:33:29.549Z,91.57
2019-06-26T04:36:00.349Z,94.53
2019-06-26T04:38:29.506Z,90.43
2019-06-26T04:40:58.116Z,94.50
2019-06-26T04:43:27.151Z,88.57
2019-06-26T04:46:00.182Z,84.13
2019-06-26T04:48:30.679Z,94.93
2019-06-26T04:51:00.732Z,92.73
2019-06-26T04:53:30.390Z,90.27
2019-06-26T04:55:59.380Z,88.50
2019-06-26T04:58:28.630Z,90.10
2019-06-26T05:00:57.622Z,89.80
2019-06-26T05:03:27.247Z,82.43
2019-06-26T05:05:56.294Z,82.63
2019-06-26T05:08:25.456Z,87.07
2019-06-26T05:10:54.674Z,83.40
2019-06-26T05:13:24.354Z,84.07
2019-06-26T05:15:55.370Z,92.83
2019-06-26T05:18:24.489Z,88.23
2019-06-26T05:20:54.629Z,85.87
2019-06-26T05:23:23.679Z,90.83
2019-06-26T05:25:52.758Z,94.23
2019-06-26T05:28:23.243Z,89.30
2019-06-26T05:30:52.339Z,87.87
2019-06-26T05:33:24.385Z,86.10
2019-06-26T05:35:54.681Z,88.67
2019-06-26T05:38:26.080Z,87.93
2019-06-26T05:40:55.711Z,86.60
2019-06-26T05:43:26.009Z,86.53
2019-06-26T05:45:55.008Z,86.70
2019-06-26T05:48:24.518Z,88.53
2019-06-26T05:50:53.573Z,85.60
2019-06-26T05:53:23.875Z,90.10
2019-06-26T05:55:52.832Z,82.77
2019-06-26T05:58:23.000Z,83.43
2019-06-26T06:00:52.041Z,79.23
2019-06-26T06:03:22.195Z,81.63
2019-06-26T06:05:51.811Z,78.70
2019-06-26T06:08:21.448Z,80.53
2019-06-26T06:10:50.410Z,79.10
2019-06-26T06:13:20.348Z,82.53
2019-06-26T06:15:49.464Z,79.53
2019-06-26T06:18:19.149Z,80.17
2019-06-26T06:20:48.101Z,74.67
2019-06-26T06:23:17.863Z,74.80
2019-06-26T06:25:46.860Z,77.10
2019-06-26T06:28:16.242Z,76.30
2019-06-26T06:30:45.728Z,75.17
2019-06-26T06:33:15.796Z,71.63
2019-06-26T06:35:45.776Z,80.00
2019-06-26T06:38:15.908Z,72.93
2019-06-26T06:40:46.294Z,74.43
2019-06-26T06:43:21.224Z,73.70
2019-06-26T06:45:50.517Z,70.03
2019-06-26T06:48:21.408Z,71.43
2019-06-26T06:50:52.490Z,70.90
2019-06-26T06:53:22.315Z,70.07
2019-06-26T06:55:53.246Z,70.43
2019-06-26T06:58:22.372Z,68.43
2019-06-26T07:00:51.934Z,68.03
2019-06-26T07:03:21.115Z,58.60
2019-06-26T07:05:50.955Z,52.57
2019-06-26T07:08:20.431Z,53.03
2019-06-26T07:10:49.378Z,55.50
2019-06-26T07:13:18.330Z,51.57
2019-06-26T07:15:47.778Z,50.63
2019-06-26T07:18:17.880Z,53.73
2019-06-26T07:20:46.849Z,49.03
2019-06-26T07:23:15.732Z,47.17
2019-06-26T07:25:44.643Z,51.03
2019-06-26T07:28:14.562Z,49.23
2019-06-26T07:30:44.595Z,50.47
2019-06-26T07:33:13.669Z,49.87
2019-06-26T07:35:43.409Z,47.70
2019-06-26T07:38:12.464Z,47.33
2019-06-26T07:40:41.440Z,41.73
2019-06-26T07:43:10.504Z,44.43
2019-06-26T07:45:39.626Z,44.50
2019-06-26T07:48:09.172Z,42.37
2019-06-26T07:50:39.268Z,40.30
2019-06-26T07:53:08.159Z,44.53
2019-06-26T07:55:40.470Z,43.60
2019-06-26T07:58:07.514Z,41.33
2019-06-26T08:00:37.750Z,39.93
2019-06-26T08:03:07.798Z,39.00
2019-06-26T08:05:36.991Z,36.83
2019-06-26T08:08:06.055Z,38.10
2019-06-26T08:10:35.550Z,38.80
2019-06-26T08:13:05.353Z,34.70
2019-06-26T08:15:34.300Z,31.00
2019-06-26T08:18:03.825Z,28.07
2019-06-26T08:20:51.549Z,31.07
2019-06-26T08:23:03.623Z,29.80
2019-06-26T08:25:33.096Z,30.27
2019-06-26T08:28:03.086Z,28.07
2019-06-26T08:30:32.567Z,25.80
2019-06-26T08:33:03.123Z,21.73
2019-06-26T08:35:32.214Z,22.13
2019-06-26T08:38:11.103Z,21.13
2019-06-26T08:40:30.883Z,16.30
2019-06-26T08:43:00.446Z,15.90
2019-06-26T08:45:31.453Z,16.10
2019-06-26T08:48:16.646Z,15.17
2019-06-26T08:50:30.619Z,14.33
2019-06-26T08:53:00.796Z,13.30
2019-06-26T08:55:29.788Z,12.53
2019-06-26T08:57:59.572Z,11.20
2019-06-26T09:00:29.714Z,12.93
2019-06-26T09:02:58.715Z,10.33
2019-06-26T09:05:27.747Z,11.30
2019-06-26T09:07:57.375Z,10.57
2019-06-26T09:28:41.239Z,11.77
2019-06-26T09:31:10.793Z,11.73
2019-06-26T09:33:39.660Z,9.80
2019-06-26T09:36:09.768Z,11.00
2019-06-26T09:38:38.612Z,10.50
2019-06-26T09:41:07.745Z,12.00
2019-06-26T09:43:36.686Z,10.47
2019-06-26T09:46:05.594Z,11.17
2019-06-26T09:48:51.627Z,11.67
2019-06-26T09:51:04.627Z,11.10
2019-06-26T09:53:46.557Z,8.87
2019-06-26T09:56:02.308Z,13.60
2019-06-26T09:58:32.736Z,10.93
2019-06-26T10:01:01.607Z,9.93
2019-06-26T10:03:30.481Z,9.70
2019-06-26T10:05:59.341Z,10.23
2019-06-26T10:08:29.238Z,8.93
2019-06-26T10:10:58.140Z,8.00
2019-06-26T10:13:27.418Z,10.17
2019-06-26T10:15:59.477Z,8.40
2019-06-26T10:18:25.123Z,8.70
2019-06-26T10:20:54.600Z,6.70
2019-06-26T10:23:23.460Z,7.27
2019-06-26T10:25:52.326Z,6.77
2019-06-26T10:28:22.087Z,7.30
2019-06-26T10:30:50.720Z,6.30
2019-06-26T10:33:19.579Z,6.67
2019-06-26T10:35:48.424Z,6.43
2019-06-26T10:38:17.867Z,6.37
2019-06-26T10:40:46.792Z,6.70
2019-06-26T10:43:15.676Z,6.40
2019-06-26T10:45:44.519Z,6.23
2019-06-26T10:48:14.717Z,5.77
2019-06-26T10:50:51.929Z,5.37
2019-06-26T10:53:13.160Z,5.90
2019-06-26T10:55:42.001Z,5.87
2019-06-26T10:58:10.874Z,6.00
2019-06-26T11:00:40.723Z,5.30
2019-06-26T11:03:09.759Z,6.13
2019-06-26T11:05:39.576Z,6.23
2019-06-26T11:08:10.088Z,6.07
2019-06-26T11:10:38.954Z,7.00
2019-06-26T11:13:09.236Z,6.30
2019-06-26T11:15:38.739Z,5.77
2019-06-26T11:18:07.629Z,5.97
2019-06-26T11:20:36.450Z,6.70
2019-06-26T11:23:05.386Z,5.93
2019-06-26T11:25:34.210Z,6.50
2019-06-26T11:28:03.754Z,5.77
2019-06-26T11:30:33.305Z,6.17
2019-06-26T11:33:02.353Z,6.30
2019-06-26T11:35:31.022Z,6.13
2019-06-26T11:38:02.056Z,6.23
2019-06-26T11:40:30.983Z,6.63
2019-06-26T11:42:59.875Z,5.97
2019-06-26T11:45:29.871Z,6.30
2019-06-26T11:47:58.712Z,5.93
2019-06-26T11:50:27.593Z,6.77
2019-06-26T11:52:58.441Z,5.67
2019-06-26T11:55:27.300Z,6.70
2019-06-26T11:57:56.191Z,6.40
2019-06-26T12:00:25.046Z,6.33
2019-06-26T12:02:53.971Z,7.07
2019-06-26T12:05:22.833Z,7.30
2019-06-26T12:07:51.723Z,6.73
2019-06-26T12:10:20.943Z,6.47
2019-06-26T12:12:51.031Z,6.17
2019-06-26T12:15:19.910Z,6.63
2019-06-26T12:17:48.752Z,6.93
2019-06-26T12:20:19.843Z,6.87
2019-06-26T12:22:46.525Z,6.70
2019-06-26T12:25:15.378Z,7.40
2019-06-26T12:27:44.253Z,5.60
2019-06-26T12:30:14.165Z,6.53
2019-06-26T12:33:01.039Z,6.23
2019-06-26T12:35:12.141Z,7.10
2019-06-26T12:37:41.048Z,6.30
2019-06-26T12:40:10.057Z,6.40
2019-06-26T12:42:39.497Z,5.40
2019-06-26T12:45:08.500Z,6.60
2019-06-26T12:47:37.352Z,6.13
2019-06-26T12:50:06.328Z,6.03
2019-06-26T12:52:35.289Z,5.53
2019-06-26T12:55:04.233Z,6.50
2019-06-26T12:57:33.685Z,5.77
2019-06-26T13:00:03.501Z,6.97
2019-06-26T13:02:32.338Z,7.00
2019-06-26T13:05:01.226Z,6.53
2019-06-26T13:07:31.072Z,6.20
2019-06-26T13:10:00.952Z,6.43
2019-06-26T13:12:29.828Z,6.80
2019-06-26T13:14:59.276Z,7.00
2019-06-26T13:17:29.107Z,7.17
2019-06-26T13:19:59.081Z,7.50
2019-06-26T13:22:27.979Z,7.33
2019-06-26T13:24:56.865Z,6.70
2019-06-26T13:27:25.821Z,7.47
2019-06-26T13:29:55.278Z,6.90
2019-06-26T13:32:24.099Z,6.93
2019-06-26T13:34:52.976Z,7.23
2019-06-26T13:37:21.798Z,6.37
2019-06-26T13:39:50.722Z,6.17
2019-06-26T13:42:19.684Z,6.63
2019-06-26T13:44:48.535Z,7.03
2019-06-26T13:47:18.053Z,6.83
2019-06-26T13:49:46.963Z,6.87
2019-06-26T13:52:15.946Z,7.20
2019-06-26T13:54:44.924Z,6.10
2019-06-26T13:57:15.857Z,6.10
2019-06-26T13:59:43.684Z,6.17
2019-06-26T14:02:12.588Z,6.70
2019-06-26T14:04:42.791Z,5.80
2019-06-26T14:07:14.405Z,6.20
2019-06-26T14:09:43.347Z,5.90
2019-06-26T14:12:12.244Z,5.83
2019-06-26T14:14:56.921Z,5.23
2019-06-26T14:17:11.167Z,5.97
2019-06-26T14:19:40.018Z,5.80
2019-06-26T14:22:08.886Z,5.50
2019-06-26T14:24:38.341Z,5.23
2019-06-26T14:27:07.789Z,5.80
2019-06-26T14:29:36.754Z,5.80
2019-06-26T14:32:05.742Z,5.20
2019-06-26T14:34:43.151Z,5.50
2019-06-26T14:37:18.415Z,5.37
2019-06-26T14:39:47.666Z,5.20
2019-06-26T14:42:17.851Z,5.03
2019-06-26T14:44:46.671Z,5.23
2019-06-26T14:47:15.518Z,4.43
2019-06-26T14:49:44.438Z,4.77
2019-06-26T14:52:13.945Z,4.93
2019-06-26T14:54:44.457Z,4.30
2019-06-26T14:57:13.381Z,5.03
2019-06-26T14:59:42.251Z,4.43
2019-06-26T15:02:11.168Z,4.07
2019-06-26T15:04:46.180Z,4.03
2019-06-26T15:07:13.426Z,4.17
2019-06-26T15:09:44.873Z,4.03
2019-06-26T15:12:13.801Z,4.07
2019-06-26T15:14:42.633Z,3.40
2019-06-26T15:17:11.523Z,4.00
2019-06-26T15:19:40.345Z,3.70
2019-06-26T15:22:09.309Z,4.27
2019-06-26T15:24:38.258Z,3.70
2019-06-26T15:27:07.361Z,3.27
2019-06-26T15:29:36.321Z,3.30
2019-06-26T15:32:05.239Z,3.27
2019-06-26T15:34:34.304Z,3.30
2019-06-26T15:37:04.511Z,3.30
2019-06-26T15:39:33.409Z,3.03
2019-06-26T15:42:02.334Z,2.93
2019-06-26T15:44:31.394Z,2.47
2019-06-26T15:47:01.283Z,2.90
2019-06-26T15:49:30.140Z,3.00
2019-06-26T15:52:14.376Z,2.77
2019-06-26T15:54:33.630Z,3.00
2019-06-26T15:57:02.611Z,3.57
2019-06-26T15:59:31.504Z,2.50
2019-06-26T16:02:01.992Z,3.77
2019-06-26T16:04:30.919Z,4.07
2019-06-26T16:06:59.781Z,4.73
2019-06-26T16:09:28.707Z,4.30
2019-06-26T16:11:58.932Z,3.77
2019-06-26T16:14:26.448Z,3.17
2019-06-26T16:16:56.095Z,3.40
2019-06-26T16:19:25.064Z,2.67
2019-06-26T16:21:55.165Z,3.27
2019-06-26T16:24:24.061Z,3.10
2019-06-26T16:26:53.316Z,3.10
2019-06-26T16:29:22.208Z,2.87
2019-06-26T16:31:51.074Z,2.37
2019-06-26T16:34:19.932Z,2.97
2019-06-26T16:36:48.803Z,2.53
2019-06-26T16:39:17.675Z,3.43
2019-06-26T16:41:48.957Z,8.70
2019-06-26T16:44:15.490Z,2.87
2019-06-26T16:46:44.386Z,2.70
2019-06-26T16:49:13.760Z,2.80
2019-06-26T16:51:43.809Z,3.30
2019-06-26T16:54:12.723Z,2.83
2019-06-26T16:56:41.521Z,2.20
2019-06-26T17:02:33.018Z,2.20
2019-06-26T17:05:02.031Z,2.40
2019-06-26T17:07:31.266Z,2.47
2019-06-26T17:10:00.231Z,3.13
2019-06-26T17:12:29.283Z,3.10
2019-06-26T17:14:58.152Z,2.67
2019-06-26T17:17:27.007Z,3.00
2019-06-26T17:19:55.851Z,2.10
2019-06-26T17:22:24.672Z,2.83
2019-06-26T17:24:53.513Z,1.80
2019-06-26T17:27:22.703Z,2.30
2019-06-26T17:29:51.700Z,1.83
2019-06-26T17:32:21.259Z,2.23
2019-06-26T17:34:50.081Z,2.23
2019-06-26T17:37:19.024Z,2.37
2019-06-26T17:39:47.851Z,2.23
2019-06-26T17:42:16.895Z,2.50
2019-06-26T17:44:45.733Z,1.63
2019-06-26T17:47:14.628Z,1.87
2019-06-26T17:49:44.104Z,1.73
2019-06-26T17:52:12.941Z,2.10
2019-06-26T17:54:41.816Z,2.60
2019-06-26T17:57:10.671Z,1.90
2019-06-26T17:59:46.376Z,2.47
2019-06-26T18:02:15.223Z,2.03
2019-06-26T18:04:44.072Z,2.10
2019-06-26T18:07:12.944Z,3.77
2019-06-26T18:09:41.790Z,2.20
2019-06-26T18:12:10.648Z,2.67
2019-06-26T18:14:43.214Z,2.33
2019-06-26T18:17:21.560Z,2.63
2019-06-26T18:19:40.244Z,2.33
2019-06-26T18:22:09.075Z,2.60
2019-06-26T18:24:38.012Z,2.53
2019-06-26T18:27:06.872Z,3.03
2019-06-26T18:29:35.969Z,2.60
2019-06-26T18:32:04.763Z,4.77
2019-06-26T18:34:33.601Z,3.03
2019-06-26T18:37:02.433Z,2.97
2019-06-26T18:39:31.403Z,2.40
2019-06-26T18:42:01.947Z,2.80
2019-06-26T18:44:30.770Z,2.70
2019-06-26T18:46:59.613Z,3.17
2019-06-26T18:49:28.441Z,2.20
2019-06-26T18:51:57.481Z,2.30
2019-06-26T18:54:26.849Z,2.60
2019-06-26T18:56:55.723Z,2.13
2019-06-26T18:59:24.572Z,3.00
2019-06-26T19:01:54.341Z,2.57
2019-06-26T19:04:23.242Z,2.40
2019-06-26T19:06:52.089Z,2.23
2019-06-26T19:09:21.844Z,2.87
2019-06-26T19:11:50.672Z,2.23
2019-06-26T19:14:19.530Z,2.67
2019-06-26T19:16:48.409Z,1.80
2019-06-26T19:19:17.257Z,2.70
2019-06-26T19:21:46.761Z,2.30
2019-06-26T19:24:15.581Z,2.90
2019-06-26T19:26:47.472Z,3.23
2019-06-26T19:29:16.315Z,2.90
2019-06-26T19:31:45.216Z,3.00
2019-06-26T19:34:14.181Z,2.23
2019-06-26T19:36:50.055Z,2.70
2019-06-26T19:39:12.056Z,2.70
2019-06-26T19:41:41.320Z,3.13
2019-06-26T19:44:10.104Z,3.57
2019-06-26T19:46:41.929Z,2.67
2019-06-26T19:49:10.067Z,2.73
2019-06-26T19:51:38.922Z,2.93
2019-06-26T19:54:07.776Z,2.63
2019-06-26T19:56:37.206Z,2.77
2019-06-26T19:59:06.765Z,2.80
2019-06-26T20:01:35.695Z,2.90
2019-06-26T20:04:04.599Z,3.23
2019-06-26T20:06:33.402Z,3.03
2019-06-26T20:09:03.193Z,2.87
2019-06-26T20:11:33.323Z,2.53
2019-06-26T20:14:02.202Z,3.07
2019-06-26T20:16:31.044Z,3.07
2019-06-26T20:18:59.879Z,2.90
2019-06-26T20:21:28.750Z,2.80
2019-06-26T20:23:58.277Z,2.90
2019-06-26T20:26:28.170Z,3.37
2019-06-26T20:28:57.001Z,3.37
2019-06-26T20:31:25.851Z,3.50
2019-06-26T20:33:54.673Z,2.50
2019-06-26T20:36:23.550Z,3.50
2019-06-26T20:38:52.420Z,3.13
2019-06-26T20:41:21.270Z,3.27
2019-06-26T20:43:50.135Z,3.40
2019-06-26T20:46:19.680Z,3.30
2019-06-26T20:48:48.532Z,3.57
2019-06-26T20:51:20.799Z,3.40
2019-06-26T20:53:47.647Z,3.23
2019-06-26T20:56:16.548Z,3.67
2019-06-26T20:58:46.057Z,2.73
2019-06-26T21:01:15.127Z,2.90
2019-06-26T21:03:44.005Z,3.00
2019-06-26T21:06:13.083Z,2.67
2019-06-26T21:08:41.945Z,3.20
2019-06-26T21:11:10.820Z,2.37
2019-06-26T21:13:40.186Z,2.90
2019-06-26T21:16:10.633Z,2.80
2019-06-26T21:18:39.499Z,4.17
2019-06-26T21:21:08.363Z,3.60
2019-06-26T21:23:37.273Z,2.60
2019-06-26T21:26:06.126Z,2.37
2019-06-26T21:28:34.998Z,2.47
2019-06-26T21:31:03.846Z,3.33
2019-06-26T21:33:33.699Z,2.93
2019-06-26T21:36:02.539Z,2.80
2019-06-26T21:38:31.390Z,2.63
2019-06-26T21:41:00.476Z,3.10
2019-06-26T21:43:29.407Z,2.90
2019-06-26T21:45:58.363Z,2.77
2019-06-26T21:48:28.342Z,2.70
2019-06-26T21:50:57.229Z,2.57
2019-06-26T21:53:26.072Z,3.20
2019-06-26T21:56:00.461Z,2.80
2019-06-26T21:58:35.021Z,3.30
2019-06-26T22:01:09.462Z,2.83
2019-06-26T22:03:45.066Z,4.07
2019-06-26T22:06:13.984Z,3.43
2019-06-26T22:08:44.411Z,3.60
2019-06-26T22:11:13.268Z,3.00
2019-06-26T22:13:42.129Z,3.63
2019-06-26T22:16:10.990Z,2.87
2019-06-26T22:18:39.928Z,3.37
2019-06-26T22:21:09.291Z,3.47
2019-06-26T22:23:38.245Z,3.20
2019-06-26T22:26:07.106Z,5.13
2019-06-26T22:28:35.989Z,3.13
2019-06-26T22:31:04.894Z,3.23
2019-06-26T22:33:33.762Z,3.40
2019-06-26T22:36:02.670Z,3.87
2019-06-26T22:38:31.548Z,3.43
2019-06-26T22:41:02.126Z,3.87
2019-06-26T22:43:31.650Z,3.93
2019-06-26T22:46:00.494Z,3.77
2019-06-26T22:48:29.383Z,3.73
2019-06-26T22:50:58.232Z,4.10
2019-06-26T22:53:27.058Z,4.00
2019-06-26T22:56:07.206Z,3.97
2019-06-26T22:58:25.262Z,4.70
2019-06-26T23:00:54.135Z,4.43
2019-06-26T23:03:23.024Z,4.17
2019-06-26T23:05:51.912Z,4.40
2019-06-26T23:08:20.807Z,3.97
2019-06-26T23:10:49.662Z,4.10
2019-06-26T23:13:18.556Z,4.10
2019-06-26T23:15:47.414Z,3.80
2019-06-26T23:18:16.248Z,4.33
2019-06-26T23:20:45.123Z,3.47
2019-06-26T23:23:13.942Z,3.87
2019-06-26T23:25:42.784Z,4.23
2019-06-26T23:28:13.343Z,3.87
2019-06-26T23:30:43.461Z,3.90
2019-06-26T23:33:12.815Z,3.50
2019-06-26T23:35:42.278Z,3.70
2019-06-26T23:38:11.660Z,3.83
2019-06-26T23:40:40.494Z,3.13
2019-06-26T23:43:09.323Z,3.47
2019-06-26T23:45:39.164Z,4.03
2019-06-26T23:48:11.382Z,3.83
2019-06-26T23:50:41.337Z,4.03
2019-06-26T23:53:10.214Z,3.43
2019-06-26T23:55:39.041Z,3.90
2019-06-26T23:58:09.270Z,3.90
